sensor_id;sensor_type;location;lat;lon;timestamp;pressure;altitude;pressure_sealevel;temperature;humidity
18900;BME280;9582;52.018;6.306;2023-06-26T00:01:04;101814.22;;;21.15;100.00
18900;BME280;9582;52.018;6.306;2023-06-26T00:03:31;101812.78;;;21.11;100.00
18900;BME280;9582;52.018;6.306;2023-06-26T00:05:58;101814.66;;;21.09;100.00
18900;BME280;9582;52.018;6.306;2023-06-26T00:08:26;101820.31;;;21.04;100.00
18900;BME280;9582;52.018;6.306;2023-06-26T00:10:52;101827.66;;;21.01;100.00
18900;BME280;9582;52.018;6.306;2023-06-26T00:13:19;101830.53;;;20.98;100.00
18900;BME280;9582;52.018;6.306;2023-06-26T00:15:47;101835.13;;;20.96;100.00
18900;BME280;9582;52.018;6.306;2023-06-26T00:18:13;101835.22;;;20.94;100.00
18900;BME280;9582;52.018;6.306;2023-06-26T00:20:40;101831.94;;;20.91;100.00
18900;BME280;9582;52.018;6.306;2023-06-26T00:23:06;101840.22;;;20.86;100.00
18900;BME280;9582;52.018;6.306;2023-06-26T00:25:33;101847.59;;;20.83;100.00
18900;BME280;9582;52.018;6.306;2023-06-26T00:28:00;101863.78;;;20.80;100.00
18900;BME280;9582;52.018;6.306;2023-06-26T00:30:26;101874.50;;;20.78;100.00
18900;BME280;9582;52.018;6.306;2023-06-26T00:32:54;101859.41;;;20.79;100.00
18900;BME280;9582;52.018;6.306;2023-06-26T00:35:20;101844.53;;;20.76;100.00
18900;BME280;9582;52.018;6.306;2023-06-26T00:37:47;101831.22;;;20.76;100.00
18900;BME280;9582;52.018;6.306;2023-06-26T00:40:14;101817.09;;;20.76;100.00
18900;BME280;9582;52.018;6.306;2023-06-26T00:42:41;101791.56;;;20.73;100.00
18900;BME280;9582;52.018;6.306;2023-06-26T00:45:08;101771.38;;;20.70;100.00
18900;BME280;9582;52.018;6.306;2023-06-26T00:47:34;101746.72;;;20.68;100.00
18900;BME280;9582;52.018;6.306;2023-06-26T00:50:04;101739.81;;;20.66;100.00
18900;BME280;9582;52.018;6.306;2023-06-26T00:52:31;101726.63;;;20.64;100.00
18900;BME280;9582;52.018;6.306;2023-06-26T00:54:59;101713.56;;;20.61;100.00
18900;BME280;9582;52.018;6.306;2023-06-26T00:57:26;101707.53;;;20.59;100.00
18900;BME280;9582;52.018;6.306;2023-06-26T00:59:53;101694.47;;;20.56;100.00
18900;BME280;9582;52.018;6.306;2023-06-26T01:02:20;101701.91;;;20.51;100.00
18900;BME280;9582;52.018;6.306;2023-06-26T01:04:49;101703.72;;;20.51;100.00
18900;BME280;9582;52.018;6.306;2023-06-26T01:07:18;101695.03;;;20.49;100.00
18900;BME280;9582;52.018;6.306;2023-06-26T01:09:46;101692.47;;;20.47;100.00
18900;BME280;9582;52.018;6.306;2023-06-26T01:12:13;101709.34;;;20.46;100.00
18900;BME280;9582;52.018;6.306;2023-06-26T01:14:40;101711.28;;;20.44;100.00
18900;BME280;9582;52.018;6.306;2023-06-26T01:17:07;101703.44;;;20.43;100.00
18900;BME280;9582;52.018;6.306;2023-06-26T01:19:37;101717.88;;;20.39;100.00
18900;BME280;9582;52.018;6.306;2023-06-26T01:22:10;101719.81;;;20.37;100.00
18900;BME280;9582;52.018;6.306;2023-06-26T01:24:53;101726.06;;;20.36;100.00
18900;BME280;9582;52.018;6.306;2023-06-26T01:27:24;101741.28;;;20.34;100.00
18900;BME280;9582;52.018;6.306;2023-06-26T01:29:52;101743.19;;;20.32;100.00
18900;BME280;9582;52.018;6.306;2023-06-26T01:32:21;101749.47;;;20.31;100.00
18900;BME280;9582;52.018;6.306;2023-06-26T01:34:48;101769.97;;;20.29;100.00
18900;BME280;9582;52.018;6.306;2023-06-26T01:37:15;101786.97;;;20.26;100.00
18900;BME280;9582;52.018;6.306;2023-06-26T01:39:42;101771.22;;;20.23;100.00
18900;BME280;9582;52.018;6.306;2023-06-26T01:42:10;101776.84;;;20.18;100.00
18900;BME280;9582;52.018;6.306;2023-06-26T01:44:44;101783.00;;;20.19;100.00
18900;BME280;9582;52.018;6.306;2023-06-26T01:47:12;101795.53;;;20.17;100.00
18900;BME280;9582;52.018;6.306;2023-06-26T01:49:46;101800.13;;;20.15;100.00
18900;BME280;9582;52.018;6.306;2023-06-26T01:52:19;101800.34;;;20.12;100.00
18900;BME280;9582;52.018;6.306;2023-06-26T01:54:53;101828.78;;;20.10;100.00
18900;BME280;9582;52.018;6.306;2023-06-26T01:57:20;101865.34;;;20.06;100.00
18900;BME280;9582;52.018;6.306;2023-06-26T01:59:50;101882.41;;;20.02;100.00
18900;BME280;9582;52.018;6.306;2023-06-26T02:02:17;101908.22;;;20.00;100.00
18900;BME280;9582;52.018;6.306;2023-06-26T02:04:44;101901.94;;;20.01;100.00
18900;BME280;9582;52.018;6.306;2023-06-26T02:07:13;101902.59;;;20.05;100.00
18900;BME280;9582;52.018;6.306;2023-06-26T02:09:40;101913.88;;;20.08;100.00
18900;BME280;9582;52.018;6.306;2023-06-26T02:12:07;101892.50;;;20.10;100.00
18900;BME280;9582;52.018;6.306;2023-06-26T02:14:33;101866.94;;;20.09;100.00
18900;BME280;9582;52.018;6.306;2023-06-26T02:17:01;101831.56;;;20.08;100.00
18900;BME280;9582;52.018;6.306;2023-06-26T02:19:28;101820.94;;;20.08;100.00
18900;BME280;9582;52.018;6.306;2023-06-26T02:21:54;101802.44;;;20.07;100.00
18900;BME280;9582;52.018;6.306;2023-06-26T02:24:23;101785.03;;;20.03;100.00
18900;BME280;9582;52.018;6.306;2023-06-26T02:26:50;101762.94;;;20.02;100.00
18900;BME280;9582;52.018;6.306;2023-06-26T02:29:16;101753.16;;;20.03;100.00
18900;BME280;9582;52.018;6.306;2023-06-26T02:31:43;101746.47;;;20.10;100.00
18900;BME280;9582;52.018;6.306;2023-06-26T02:34:11;101737.84;;;20.19;100.00
18900;BME280;9582;52.018;6.306;2023-06-26T02:36:37;101707.91;;;20.30;100.00
18900;BME280;9582;52.018;6.306;2023-06-26T02:39:04;101683.25;;;20.40;100.00
18900;BME280;9582;52.018;6.306;2023-06-26T02:41:32;101653.47;;;20.48;100.00
18900;BME280;9582;52.018;6.306;2023-06-26T02:43:58;101614.00;;;20.54;100.00
18900;BME280;9582;52.018;6.306;2023-06-26T02:46:25;101584.28;;;20.60;100.00
18900;BME280;9582;52.018;6.306;2023-06-26T02:48:52;101561.00;;;20.64;100.00
18900;BME280;9582;52.018;6.306;2023-06-26T02:51:20;101576.09;;;20.63;100.00
18900;BME280;9582;52.018;6.306;2023-06-26T02:53:47;101552.19;;;20.63;100.00
18900;BME280;9582;52.018;6.306;2023-06-26T02:56:14;101544.97;;;20.65;100.00
18900;BME280;9582;52.018;6.306;2023-06-26T02:58:40;101523.69;;;20.65;100.00
18900;BME280;9582;52.018;6.306;2023-06-26T03:01:07;101520.41;;;20.62;100.00
18900;BME280;9582;52.018;6.306;2023-06-26T03:03:34;101520.53;;;20.60;100.00
18900;BME280;9582;52.018;6.306;2023-06-26T03:06:07;101519.06;;;20.56;100.00
18900;BME280;9582;52.018;6.306;2023-06-26T03:08:37;101518.22;;;20.56;100.00
18900;BME280;9582;52.018;6.306;2023-06-26T03:11:04;101516.41;;;20.56;100.00
18900;BME280;9582;52.018;6.306;2023-06-26T03:13:31;101512.91;;;20.56;100.00
18900;BME280;9582;52.018;6.306;2023-06-26T03:15:58;101519.66;;;20.49;100.00
18900;BME280;9582;52.018;6.306;2023-06-26T03:18:24;101519.03;;;20.45;100.00
18900;BME280;9582;52.018;6.306;2023-06-26T03:20:51;101519.34;;;20.41;100.00
18900;BME280;9582;52.018;6.306;2023-06-26T03:23:19;101531.28;;;20.35;100.00
18900;BME280;9582;52.018;6.306;2023-06-26T03:25:47;101531.28;;;20.35;100.00
18900;BME280;9582;52.018;6.306;2023-06-26T03:28:26;101538.31;;;20.36;100.00
18900;BME280;9582;52.018;6.306;2023-06-26T03:30:52;101522.16;;;20.39;100.00
18900;BME280;9582;52.018;6.306;2023-06-26T03:33:20;101521.78;;;20.44;100.00
18900;BME280;9582;52.018;6.306;2023-06-26T03:35:47;101514.44;;;20.47;100.00
18900;BME280;9582;52.018;6.306;2023-06-26T03:38:14;101510.00;;;20.48;100.00
18900;BME280;9582;52.018;6.306;2023-06-26T03:40:42;101492.97;;;20.50;100.00
18900;BME280;9582;52.018;6.306;2023-06-26T03:43:10;101492.97;;;20.50;100.00
18900;BME280;9582;52.018;6.306;2023-06-26T03:45:58;101483.41;;;20.48;100.00
18900;BME280;9582;52.018;6.306;2023-06-26T03:48:26;101480.03;;;20.46;100.00
18900;BME280;9582;52.018;6.306;2023-06-26T03:50:54;101481.84;;;20.45;100.00
18900;BME280;9582;52.018;6.306;2023-06-26T03:53:20;101465.66;;;20.48;100.00
18900;BME280;9582;52.018;6.306;2023-06-26T03:55:47;101454.81;;;20.51;100.00
18900;BME280;9582;52.018;6.306;2023-06-26T03:58:15;101432.34;;;20.55;100.00
18900;BME280;9582;52.018;6.306;2023-06-26T04:00:41;101426.06;;;20.45;100.00
18900;BME280;9582;52.018;6.306;2023-06-26T04:03:08;101426.75;;;20.36;100.00
18900;BME280;9582;52.018;6.306;2023-06-26T04:05:35;101419.13;;;20.32;100.00
18900;BME280;9582;52.018;6.306;2023-06-26T04:08:02;101432.50;;;20.30;100.00
18900;BME280;9582;52.018;6.306;2023-06-26T04:10:28;101473.56;;;20.26;100.00
18900;BME280;9582;52.018;6.306;2023-06-26T04:12:55;101493.31;;;20.22;100.00
18900;BME280;9582;52.018;6.306;2023-06-26T04:15:23;101509.47;;;20.19;100.00
18900;BME280;9582;52.018;6.306;2023-06-26T04:17:49;101524.53;;;20.18;100.00
18900;BME280;9582;52.018;6.306;2023-06-26T04:20:16;101541.47;;;20.17;100.00
18900;BME280;9582;52.018;6.306;2023-06-26T04:22:42;101561.63;;;20.20;100.00
18900;BME280;9582;52.018;6.306;2023-06-26T04:25:09;101579.22;;;20.21;100.00
18900;BME280;9582;52.018;6.306;2023-06-26T04:27:37;101571.25;;;20.21;100.00
18900;BME280;9582;52.018;6.306;2023-06-26T04:30:04;101571.25;;;20.21;100.00
18900;BME280;9582;52.018;6.306;2023-06-26T04:32:32;101580.09;;;20.22;100.00
18900;BME280;9582;52.018;6.306;2023-06-26T04:34:58;101586.47;;;20.19;100.00
18900;BME280;9582;52.018;6.306;2023-06-26T04:37:25;101608.91;;;20.15;100.00
18900;BME280;9582;52.018;6.306;2023-06-26T04:39:52;101615.53;;;20.09;100.00
18900;BME280;9582;52.018;6.306;2023-06-26T04:42:18;101621.03;;;20.06;100.00
18900;BME280;9582;52.018;6.306;2023-06-26T04:44:46;101626.66;;;20.02;100.00
18900;BME280;9582;52.018;6.306;2023-06-26T04:47:13;101638.25;;;20.01;100.00
18900;BME280;9582;52.018;6.306;2023-06-26T04:49:41;101653.22;;;20.02;100.00
18900;BME280;9582;52.018;6.306;2023-06-26T04:52:11;101686.34;;;20.09;100.00
18900;BME280;9582;52.018;6.306;2023-06-26T04:54:38;101676.88;;;20.17;100.00
18900;BME280;9582;52.018;6.306;2023-06-26T04:57:05;101679.88;;;20.26;100.00
18900;BME280;9582;52.018;6.306;2023-06-26T04:59:31;101678.38;;;20.34;100.00
18900;BME280;9582;52.018;6.306;2023-06-26T05:01:58;101673.78;;;20.36;100.00
18900;BME280;9582;52.018;6.306;2023-06-26T05:04:24;101660.84;;;20.32;100.00
18900;BME280;9582;52.018;6.306;2023-06-26T05:06:52;101669.13;;;20.27;100.00
18900;BME280;9582;52.018;6.306;2023-06-26T05:09:19;101672.41;;;20.18;100.00
18900;BME280;9582;52.018;6.306;2023-06-26T05:11:45;101696.66;;;20.13;100.00
18900;BME280;9582;52.018;6.306;2023-06-26T05:14:11;101707.59;;;20.09;100.00
18900;BME280;9582;52.018;6.306;2023-06-26T05:16:39;101725.53;;;20.05;100.00
18900;BME280;9582;52.018;6.306;2023-06-26T05:19:05;101754.97;;;20.02;100.00
18900;BME280;9582;52.018;6.306;2023-06-26T05:21:32;101766.44;;;20.03;100.00
18900;BME280;9582;52.018;6.306;2023-06-26T05:24:02;101783.41;;;20.13;100.00
18900;BME280;9582;52.018;6.306;2023-06-26T05:26:30;101784.09;;;20.29;100.00
18900;BME280;9582;52.018;6.306;2023-06-26T05:28:57;101778.44;;;20.46;100.00
18900;BME280;9582;52.018;6.306;2023-06-26T05:31:24;101769.28;;;20.63;100.00
18900;BME280;9582;52.018;6.306;2023-06-26T05:33:52;101753.44;;;20.61;100.00
18900;BME280;9582;52.018;6.306;2023-06-26T05:36:22;101736.25;;;20.78;100.00
18900;BME280;9582;52.018;6.306;2023-06-26T05:38:50;101704.09;;;21.17;100.00
18900;BME280;9582;52.018;6.306;2023-06-26T05:41:18;101647.91;;;21.22;100.00
18900;BME280;9582;52.018;6.306;2023-06-26T05:43:45;101531.94;;;21.64;100.00
18900;BME280;9582;52.018;6.306;2023-06-26T05:46:11;101403.75;;;21.91;100.00
18900;BME280;9582;52.018;6.306;2023-06-26T05:48:38;101302.16;;;22.16;100.00
18900;BME280;9582;52.018;6.306;2023-06-26T05:51:06;101212.88;;;22.12;100.00
18900;BME280;9582;52.018;6.306;2023-06-26T05:53:33;101176.00;;;22.17;100.00
18900;BME280;9582;52.018;6.306;2023-06-26T05:56:00;101145.63;;;22.29;100.00
18900;BME280;9582;52.018;6.306;2023-06-26T05:58:30;101126.59;;;22.43;100.00
18900;BME280;9582;52.018;6.306;2023-06-26T06:00:56;101120.59;;;22.11;100.00
18900;BME280;9582;52.018;6.306;2023-06-26T06:03:23;101130.09;;;21.73;100.00
18900;BME280;9582;52.018;6.306;2023-06-26T06:05:49;101148.59;;;21.54;100.00
18900;BME280;9582;52.018;6.306;2023-06-26T06:08:16;101148.41;;;21.46;100.00
18900;BME280;9582;52.018;6.306;2023-06-26T06:10:42;101154.69;;;21.45;100.00
18900;BME280;9582;52.018;6.306;2023-06-26T06:13:09;101152.19;;;21.44;100.00
18900;BME280;9582;52.018;6.306;2023-06-26T06:15:37;101159.91;;;21.47;100.00
18900;BME280;9582;52.018;6.306;2023-06-26T06:18:03;101158.91;;;21.68;100.00
18900;BME280;9582;52.018;6.306;2023-06-26T06:20:30;101156.03;;;22.02;100.00
18900;BME280;9582;52.018;6.306;2023-06-26T06:22:56;101148.03;;;22.32;100.00
18900;BME280;9582;52.018;6.306;2023-06-26T06:25:24;101133.81;;;22.22;100.00
18900;BME280;9582;52.018;6.306;2023-06-26T06:27:51;101117.69;;;22.14;100.00
18900;BME280;9582;52.018;6.306;2023-06-26T06:30:17;101123.22;;;22.41;100.00
18900;BME280;9582;52.018;6.306;2023-06-26T06:32:45;101103.94;;;22.68;100.00
18900;BME280;9582;52.018;6.306;2023-06-26T06:35:16;101089.59;;;22.97;100.00
18900;BME280;9582;52.018;6.306;2023-06-26T06:37:42;101076.00;;;23.10;100.00
18900;BME280;9582;52.018;6.306;2023-06-26T06:40:10;101082.44;;;23.08;100.00
18900;BME280;9582;52.018;6.306;2023-06-26T06:42:36;101087.63;;;23.28;100.00
18900;BME280;9582;52.018;6.306;2023-06-26T06:45:04;101084.66;;;23.41;100.00
18900;BME280;9582;52.018;6.306;2023-06-26T06:47:32;101096.75;;;23.16;100.00
18900;BME280;9582;52.018;6.306;2023-06-26T06:50:01;101102.94;;;23.17;100.00
18900;BME280;9582;52.018;6.306;2023-06-26T06:52:34;101111.34;;;23.22;100.00
18900;BME280;9582;52.018;6.306;2023-06-26T06:55:00;101121.47;;;23.28;100.00
18900;BME280;9582;52.018;6.306;2023-06-26T06:57:30;101131.16;;;23.48;100.00
18900;BME280;9582;52.018;6.306;2023-06-26T07:00:01;101133.66;;;23.40;100.00
18900;BME280;9582;52.018;6.306;2023-06-26T07:02:29;101132.97;;;23.47;100.00
18900;BME280;9582;52.018;6.306;2023-06-26T07:04:56;101144.50;;;23.38;100.00
18900;BME280;9582;52.018;6.306;2023-06-26T07:07:28;101159.22;;;23.33;100.00
18900;BME280;9582;52.018;6.306;2023-06-26T07:09:57;101157.41;;;23.43;100.00
18900;BME280;9582;52.018;6.306;2023-06-26T07:12:24;101170.19;;;23.59;100.00
18900;BME280;9582;52.018;6.306;2023-06-26T07:14:50;101182.63;;;23.77;100.00
18900;BME280;9582;52.018;6.306;2023-06-26T07:17:17;101170.50;;;23.92;100.00
18900;BME280;9582;52.018;6.306;2023-06-26T07:19:43;101190.59;;;23.96;100.00
18900;BME280;9582;52.018;6.306;2023-06-26T07:22:10;101187.81;;;23.88;100.00
18900;BME280;9582;52.018;6.306;2023-06-26T07:24:38;101199.06;;;23.82;100.00
18900;BME280;9582;52.018;6.306;2023-06-26T07:27:05;101203.41;;;23.93;100.00
18900;BME280;9582;52.018;6.306;2023-06-26T07:29:31;101211.84;;;23.88;100.00
18900;BME280;9582;52.018;6.306;2023-06-26T07:31:58;101244.91;;;23.87;100.00
18900;BME280;9582;52.018;6.306;2023-06-26T07:34:25;101254.19;;;23.83;100.00
18900;BME280;9582;52.018;6.306;2023-06-26T07:36:51;101258.50;;;24.03;100.00
18900;BME280;9582;52.018;6.306;2023-06-26T07:39:17;101263.13;;;24.21;100.00
18900;BME280;9582;52.018;6.306;2023-06-26T07:41:45;101269.50;;;24.10;100.00
18900;BME280;9582;52.018;6.306;2023-06-26T07:44:12;101287.16;;;24.21;100.00
18900;BME280;9582;52.018;6.306;2023-06-26T07:46:39;101305.31;;;24.27;100.00
18900;BME280;9582;52.018;6.306;2023-06-26T07:49:06;101301.78;;;24.17;100.00
18900;BME280;9582;52.018;6.306;2023-06-26T07:51:32;101308.56;;;23.82;100.00
18900;BME280;9582;52.018;6.306;2023-06-26T07:53:58;101311.41;;;23.42;100.00
18900;BME280;9582;52.018;6.306;2023-06-26T07:56:25;101311.53;;;23.60;100.00
18900;BME280;9582;52.018;6.306;2023-06-26T07:58:53;101300.16;;;23.68;100.00
18900;BME280;9582;52.018;6.306;2023-06-26T08:01:19;101304.34;;;23.89;100.00
18900;BME280;9582;52.018;6.306;2023-06-26T08:03:46;101296.56;;;24.25;100.00
18900;BME280;9582;52.018;6.306;2023-06-26T08:06:12;101312.38;;;24.55;100.00
18900;BME280;9582;52.018;6.306;2023-06-26T08:08:39;101303.34;;;24.65;100.00
18900;BME280;9582;52.018;6.306;2023-06-26T08:11:06;101286.16;;;24.68;100.00
18900;BME280;9582;52.018;6.306;2023-06-26T08:13:32;101302.91;;;24.24;100.00
18900;BME280;9582;52.018;6.306;2023-06-26T08:16:00;101299.59;;;23.64;100.00
18900;BME280;9582;52.018;6.306;2023-06-26T08:18:27;101280.06;;;23.64;100.00
18900;BME280;9582;52.018;6.306;2023-06-26T08:20:54;101263.03;;;23.93;100.00
18900;BME280;9582;52.018;6.306;2023-06-26T08:23:21;101269.16;;;24.23;100.00
18900;BME280;9582;52.018;6.306;2023-06-26T08:25:48;101263.22;;;24.29;100.00
18900;BME280;9582;52.018;6.306;2023-06-26T08:28:14;101273.91;;;24.29;100.00
18900;BME280;9582;52.018;6.306;2023-06-26T08:30:41;101297.47;;;24.16;100.00
18900;BME280;9582;52.018;6.306;2023-06-26T08:33:09;101315.03;;;24.18;100.00
18900;BME280;9582;52.018;6.306;2023-06-26T08:35:37;101304.78;;;24.50;100.00
18900;BME280;9582;52.018;6.306;2023-06-26T08:38:04;101307.69;;;24.66;100.00
18900;BME280;9582;52.018;6.306;2023-06-26T08:40:30;101335.72;;;24.62;100.00
18900;BME280;9582;52.018;6.306;2023-06-26T08:42:58;101324.69;;;24.75;100.00
18900;BME280;9582;52.018;6.306;2023-06-26T08:45:25;101325.09;;;24.43;100.00
18900;BME280;9582;52.018;6.306;2023-06-26T08:47:55;101318.16;;;23.85;100.00
18900;BME280;9582;52.018;6.306;2023-06-26T08:50:28;101325.38;;;23.35;100.00
18900;BME280;9582;52.018;6.306;2023-06-26T08:53:02;101349.53;;;22.84;100.00
18900;BME280;9582;52.018;6.306;2023-06-26T08:55:33;101348.44;;;23.36;100.00
18900;BME280;9582;52.018;6.306;2023-06-26T08:58:01;101354.94;;;23.91;100.00
18900;BME280;9582;52.018;6.306;2023-06-26T09:00:28;101393.22;;;24.20;100.00
18900;BME280;9582;52.018;6.306;2023-06-26T09:02:55;101426.00;;;24.41;100.00
18900;BME280;9582;52.018;6.306;2023-06-26T09:05:22;101437.66;;;24.11;100.00
18900;BME280;9582;52.018;6.306;2023-06-26T09:07:50;101432.78;;;23.58;100.00
18900;BME280;9582;52.018;6.306;2023-06-26T09:10:20;101413.56;;;23.24;100.00
18900;BME280;9582;52.018;6.306;2023-06-26T09:12:47;101406.41;;;23.83;100.00
18900;BME280;9582;52.018;6.306;2023-06-26T09:15:14;101410.63;;;23.86;100.00
18900;BME280;9582;52.018;6.306;2023-06-26T09:17:42;101437.88;;;23.51;100.00
18900;BME280;9582;52.018;6.306;2023-06-26T09:20:09;101492.16;;;23.10;100.00
18900;BME280;9582;52.018;6.306;2023-06-26T09:22:37;101494.03;;;22.89;100.00
18900;BME280;9582;52.018;6.306;2023-06-26T09:25:06;101476.94;;;22.60;100.00
18900;BME280;9582;52.018;6.306;2023-06-26T09:27:34;101487.59;;;22.60;100.00
18900;BME280;9582;52.018;6.306;2023-06-26T09:30:01;101503.69;;;23.11;100.00
18900;BME280;9582;52.018;6.306;2023-06-26T09:32:28;101521.31;;;23.53;100.00
18900;BME280;9582;52.018;6.306;2023-06-26T09:34:54;101522.84;;;23.95;100.00
18900;BME280;9582;52.018;6.306;2023-06-26T09:37:22;101534.50;;;23.85;100.00
18900;BME280;9582;52.018;6.306;2023-06-26T09:39:50;101549.72;;;24.03;100.00
18900;BME280;9582;52.018;6.306;2023-06-26T09:42:19;101554.59;;;24.38;100.00
18900;BME280;9582;52.018;6.306;2023-06-26T09:44:46;101571.31;;;24.31;100.00
18900;BME280;9582;52.018;6.306;2023-06-26T09:47:15;101588.47;;;24.28;100.00
18900;BME280;9582;52.018;6.306;2023-06-26T09:49:43;101587.91;;;24.25;100.00
18900;BME280;9582;52.018;6.306;2023-06-26T09:52:09;101597.78;;;24.53;100.00
18900;BME280;9582;52.018;6.306;2023-06-26T09:54:36;101597.09;;;24.60;100.00
18900;BME280;9582;52.018;6.306;2023-06-26T09:57:09;101595.56;;;25.06;100.00
18900;BME280;9582;52.018;6.306;2023-06-26T09:59:38;101588.22;;;25.17;100.00
18900;BME280;9582;52.018;6.306;2023-06-26T10:02:05;101589.31;;;25.34;100.00
18900;BME280;9582;52.018;6.306;2023-06-26T10:04:32;101564.47;;;25.42;100.00
18900;BME280;9582;52.018;6.306;2023-06-26T10:07:01;101541.53;;;25.30;100.00
18900;BME280;9582;52.018;6.306;2023-06-26T10:09:29;101568.09;;;25.04;100.00
18900;BME280;9582;52.018;6.306;2023-06-26T10:11:57;101621.06;;;25.00;100.00
18900;BME280;9582;52.018;6.306;2023-06-26T10:14:32;101640.63;;;25.01;100.00
18900;BME280;9582;52.018;6.306;2023-06-26T10:17:03;101685.84;;;24.85;100.00
18900;BME280;9582;52.018;6.306;2023-06-26T10:19:31;101718.09;;;24.93;100.00
18900;BME280;9582;52.018;6.306;2023-06-26T10:21:59;101721.88;;;24.90;100.00
18900;BME280;9582;52.018;6.306;2023-06-26T10:24:29;101724.44;;;24.92;100.00
18900;BME280;9582;52.018;6.306;2023-06-26T10:27:00;101735.84;;;24.94;100.00
18900;BME280;9582;52.018;6.306;2023-06-26T10:29:29;101739.50;;;25.02;100.00
18900;BME280;9582;52.018;6.306;2023-06-26T10:31:58;101746.84;;;25.19;100.00
18900;BME280;9582;52.018;6.306;2023-06-26T10:34:27;101751.75;;;25.43;100.00
18900;BME280;9582;52.018;6.306;2023-06-26T10:37:00;101758.97;;;25.33;100.00
18900;BME280;9582;52.018;6.306;2023-06-26T10:39:27;101766.81;;;24.96;100.00
18900;BME280;9582;52.018;6.306;2023-06-26T10:41:54;101761.94;;;24.71;100.00
18900;BME280;9582;52.018;6.306;2023-06-26T10:44:21;101773.13;;;24.46;100.00
18900;BME280;9582;52.018;6.306;2023-06-26T10:46:48;101783.97;;;24.14;100.00
18900;BME280;9582;52.018;6.306;2023-06-26T10:49:15;101780.91;;;24.19;100.00
18900;BME280;9582;52.018;6.306;2023-06-26T10:51:48;101791.06;;;23.83;100.00
18900;BME280;9582;52.018;6.306;2023-06-26T10:54:15;101790.28;;;23.92;100.00
18900;BME280;9582;52.018;6.306;2023-06-26T10:56:43;101781.19;;;24.25;100.00
18900;BME280;9582;52.018;6.306;2023-06-26T10:59:14;101791.16;;;24.44;100.00
18900;BME280;9582;52.018;6.306;2023-06-26T11:01:42;101784.25;;;24.41;100.00
18900;BME280;9582;52.018;6.306;2023-06-26T11:04:09;101781.59;;;24.51;100.00
18900;BME280;9582;52.018;6.306;2023-06-26T11:06:38;101776.13;;;24.62;100.00
18900;BME280;9582;52.018;6.306;2023-06-26T11:09:10;101776.41;;;24.89;100.00
18900;BME280;9582;52.018;6.306;2023-06-26T11:11:57;101774.59;;;24.99;100.00
18900;BME280;9582;52.018;6.306;2023-06-26T11:14:27;101789.66;;;24.70;100.00
18900;BME280;9582;52.018;6.306;2023-06-26T11:16:56;101789.41;;;24.73;100.00
18900;BME280;9582;52.018;6.306;2023-06-26T11:19:25;101793.19;;;24.70;100.00
18900;BME280;9582;52.018;6.306;2023-06-26T11:21:55;101794.22;;;24.79;100.00
18900;BME280;9582;52.018;6.306;2023-06-26T11:24:25;101796.56;;;24.63;100.00
18900;BME280;9582;52.018;6.306;2023-06-26T11:26:52;101799.13;;;24.34;100.00
18900;BME280;9582;52.018;6.306;2023-06-26T11:29:19;101804.28;;;24.26;100.00
18900;BME280;9582;52.018;6.306;2023-06-26T11:31:45;101806.47;;;24.42;100.00
18900;BME280;9582;52.018;6.306;2023-06-26T11:34:13;101806.19;;;24.45;100.00
18900;BME280;9582;52.018;6.306;2023-06-26T11:36:41;101796.78;;;24.50;100.00
18900;BME280;9582;52.018;6.306;2023-06-26T11:39:11;101797.44;;;24.73;100.00
18900;BME280;9582;52.018;6.306;2023-06-26T11:41:40;101781.91;;;25.07;100.00
18900;BME280;9582;52.018;6.306;2023-06-26T11:44:08;101788.22;;;24.96;100.00
18900;BME280;9582;52.018;6.306;2023-06-26T11:46:35;101799.91;;;24.86;100.00
18900;BME280;9582;52.018;6.306;2023-06-26T11:49:02;101813.31;;;24.65;100.00
18900;BME280;9582;52.018;6.306;2023-06-26T11:51:29;101823.34;;;24.12;100.00
18900;BME280;9582;52.018;6.306;2023-06-26T11:53:55;101834.41;;;23.55;100.00
18900;BME280;9582;52.018;6.306;2023-06-26T11:56:22;101839.69;;;23.23;100.00
18900;BME280;9582;52.018;6.306;2023-06-26T11:59:00;101841.59;;;23.43;100.00
18900;BME280;9582;52.018;6.306;2023-06-26T12:01:31;101846.56;;;24.00;100.00
18900;BME280;9582;52.018;6.306;2023-06-26T12:03:59;101842.84;;;24.33;100.00
18900;BME280;9582;52.018;6.306;2023-06-26T12:06:27;101846.72;;;24.20;100.00
18900;BME280;9582;52.018;6.306;2023-06-26T12:08:54;101845.19;;;24.06;100.00
18900;BME280;9582;52.018;6.306;2023-06-26T12:11:22;101834.44;;;23.96;100.00
18900;BME280;9582;52.018;6.306;2023-06-26T12:13:50;101835.47;;;24.05;100.00
18900;BME280;9582;52.018;6.306;2023-06-26T12:16:18;101841.41;;;23.88;100.00
18900;BME280;9582;52.018;6.306;2023-06-26T12:18:45;101847.66;;;23.57;100.00
18900;BME280;9582;52.018;6.306;2023-06-26T12:21:43;101840.75;;;23.75;100.00
18900;BME280;9582;52.018;6.306;2023-06-26T12:24:13;101843.91;;;24.00;100.00
18900;BME280;9582;52.018;6.306;2023-06-26T12:26:41;101842.63;;;24.16;100.00
18900;BME280;9582;52.018;6.306;2023-06-26T12:29:09;101837.13;;;24.38;100.00
18900;BME280;9582;52.018;6.306;2023-06-26T12:31:41;101854.94;;;24.28;100.00
18900;BME280;9582;52.018;6.306;2023-06-26T12:34:09;101849.69;;;24.05;100.00
18900;BME280;9582;52.018;6.306;2023-06-26T12:36:39;101855.66;;;23.77;100.00
18900;BME280;9582;52.018;6.306;2023-06-26T12:39:09;101853.75;;;23.79;100.00
18900;BME280;9582;52.018;6.306;2023-06-26T12:41:44;101859.19;;;24.09;100.00
18900;BME280;9582;52.018;6.306;2023-06-26T12:44:16;101846.28;;;24.45;100.00
18900;BME280;9582;52.018;6.306;2023-06-26T12:46:46;101845.72;;;24.72;100.00
18900;BME280;9582;52.018;6.306;2023-06-26T12:49:12;101848.88;;;24.56;100.00
18900;BME280;9582;52.018;6.306;2023-06-26T12:51:39;101870.84;;;24.29;100.00
18900;BME280;9582;52.018;6.306;2023-06-26T12:54:06;101857.53;;;24.39;100.00